Time;durP1;ratioP1;P1;durP2;ratioP2;P2;SDS_P1;SDS_P2;PMS_P1;PMS_P2;Temp;Humidity;BMP_temperature;BMP_pressure;BME280_temperature;BME280_humidity;BME280_pressure;Samples;Min_cycle;Max_cycle;Signal;HPM_P1;HPM_P2
2024/01/19 00:01:05;;;;;;;13.55;7.65;;;-3.50;99.90;;;;;;5082014;28;20180;-66
2024/01/19 00:03:31;;;;;;;11.05;6.35;;;-3.50;99.90;;;;;;5083179;28;21053;-66
2024/01/19 00:05:56;;;;;;;16.48;7.20;;;-3.50;99.90;;;;;;5082070;28;20044;-66
2024/01/19 00:08:24;;;;;;;10.70;6.18;;;-3.60;99.90;;;;;;5083264;28;20398;-66
2024/01/19 00:10:52;;;;;;;15.25;6.30;;;-3.60;99.90;;;;;;5080967;28;20507;-66
2024/01/19 00:13:18;;;;;;;13.65;6.40;;;-3.70;99.90;;;;;;5083390;28;20467;-66
2024/01/19 00:15:46;;;;;;;16.60;6.35;;;-3.70;99.90;;;;;;5083451;28;20160;-67
2024/01/19 00:18:26;;;;;;;14.60;6.47;;;-3.80;99.90;;;;;;5073464;28;20051;-64
2024/01/19 00:20:53;;;;;;;18.02;6.43;;;-3.80;99.90;;;;;;5065617;28;20051;-64
2024/01/19 00:23:22;;;;;;;18.30;6.82;;;-3.80;99.90;;;;;;5064855;28;20040;-66
2024/01/19 00:25:50;;;;;;;17.00;6.82;;;-3.80;99.90;;;;;;5069312;28;20044;-67
2024/01/19 00:28:16;;;;;;;12.10;6.22;;;-3.90;99.90;;;;;;5069011;28;20064;-66
2024/01/19 00:30:56;;;;;;;11.50;6.32;;;-3.90;99.90;;;;;;5064666;28;20093;-65
2024/01/19 00:33:37;;;;;;;10.10;5.90;;;-4.00;99.90;;;;;;5075835;28;20037;-67
2024/01/19 00:36:14;;;;;;;15.60;6.90;;;-4.00;99.90;;;;;;5073388;28;20051;-67
2024/01/19 00:38:45;;;;;;;11.75;5.78;;;-4.00;99.90;;;;;;5067094;28;20395;-64
2024/01/19 00:41:26;;;;;;;15.85;6.20;;;-4.00;99.90;;;;;;5069453;28;20043;-67
2024/01/19 00:43:54;;;;;;;11.65;6.30;;;-4.10;99.90;;;;;;5065462;28;20044;-67
2024/01/19 00:46:27;;;;;;;17.23;6.28;;;-4.10;99.90;;;;;;5077146;28;20408;-66
2024/01/19 00:49:00;;;;;;;13.10;5.85;;;-4.10;99.90;;;;;;5066798;28;20511;-66
2024/01/19 00:51:34;;;;;;;14.18;6.18;;;-4.20;99.90;;;;;;5065218;28;20047;-66
2024/01/19 00:54:22;;;;;;;14.90;6.47;;;-4.20;99.90;;;;;;5067516;28;20040;-66
2024/01/19 00:57:02;;;;;;;13.57;6.60;;;-4.20;99.90;;;;;;5063931;28;20044;-66
2024/01/19 00:59:30;;;;;;;13.57;6.25;;;-4.20;99.90;;;;;;5066264;28;20044;-66
2024/01/19 01:02:10;;;;;;;15.77;6.93;;;-4.20;99.90;;;;;;5067099;28;20048;-64
2024/01/19 01:04:49;;;;;;;;;;;;;;;;;;;;;
2024/01/19 01:07:20;;;;;;;13.13;6.50;;;-4.30;99.90;;;;;;5068432;28;20045;-67
2024/01/19 01:09:53;;;;;;;10.95;5.88;;;-4.30;99.90;;;;;;5072685;28;20115;-66
2024/01/19 01:12:29;;;;;;;14.45;6.07;;;-4.30;99.90;;;;;;5069517;28;20037;-67
2024/01/19 01:14:54;;;;;;;14.93;6.45;;;-4.30;99.90;;;;;;5068372;28;20416;-67
2024/01/19 01:17:22;;;;;;;15.32;6.25;;;-4.30;99.90;;;;;;5068186;28;20044;-67
2024/01/19 01:19:51;;;;;;;18.80;5.28;;;-4.30;99.90;;;;;;5072047;28;20055;-67
2024/01/19 01:22:19;;;;;;;17.75;6.05;;;-4.30;99.90;;;;;;5070987;28;20041;-65
2024/01/19 01:24:45;;;;;;;11.75;5.65;;;-4.20;99.90;;;;;;5068860;28;20044;-66
2024/01/19 01:27:16;;;;;;;11.23;5.80;;;-4.20;99.90;;;;;;5067566;28;20048;-66
2024/01/19 01:29:57;;;;;;;13.82;5.88;;;-4.20;99.90;;;;;;5067849;28;20083;-66
2024/01/19 01:32:39;;;;;;;12.15;6.03;;;-4.30;99.90;;;;;;5064484;28;20439;-67
2024/01/19 01:35:10;;;;;;;14.43;6.10;;;-4.30;99.90;;;;;;5068049;28;20056;-67
2024/01/19 01:37:49;;;;;;;17.52;6.38;;;-4.20;99.90;;;;;;5070501;28;20028;-66
2024/01/19 01:40:35;;;;;;;12.80;6.78;;;-4.30;99.90;;;;;;5068063;28;20044;-66
2024/01/19 01:43:12;;;;;;;14.95;6.63;;;-4.30;99.90;;;;;;5067875;28;20484;-66
2024/01/19 01:45:43;;;;;;;13.32;7.07;;;-4.30;99.90;;;;;;5085479;28;20566;-66
2024/01/19 01:48:14;;;;;;;11.65;6.30;;;-4.30;99.90;;;;;;5066801;28;20036;-65
2024/01/19 01:50:40;;;;;;;13.88;7.30;;;-4.30;99.90;;;;;;5067918;28;20052;-66
2024/01/19 01:53:11;;;;;;;13.45;6.93;;;-4.30;99.90;;;;;;5067573;28;20169;-67
2024/01/19 01:55:44;;;;;;;15.60;7.45;;;-4.30;99.90;;;;;;5069213;28;20454;-67
2024/01/19 01:58:18;;;;;;;18.48;8.20;;;-4.30;99.90;;;;;;5066826;28;20100;-66
2024/01/19 02:00:48;;;;;;;15.68;7.40;;;-4.30;99.90;;;;;;5061923;28;20380;-65
2024/01/19 02:03:16;;;;;;;14.57;7.90;;;-4.30;99.90;;;;;;5078470;28;20046;-66
2024/01/19 02:05:59;;;;;;;13.95;7.75;;;-4.30;99.90;;;;;;5067609;28;20793;-66
2024/01/19 02:08:30;;;;;;;16.15;7.65;;;-4.30;99.90;;;;;;5067568;28;20058;-67
2024/01/19 02:10:56;;;;;;;15.18;7.78;;;-4.30;99.90;;;;;;5059842;28;20029;-66
2024/01/19 02:13:27;;;;;;;14.95;7.15;;;-4.30;99.90;;;;;;5066126;28;20127;-67
2024/01/19 02:16:00;;;;;;;16.30;7.25;;;-4.30;99.90;;;;;;5063337;28;20040;-65
2024/01/19 02:18:26;;;;;;;11.65;6.70;;;-4.40;99.90;;;;;;5067224;28;20048;-65
2024/01/19 02:20:54;;;;;;;12.68;6.18;;;-4.40;99.90;;;;;;5067084;28;20034;-65
2024/01/19 02:23:29;;;;;;;11.63;6.32;;;-4.40;99.90;;;;;;5067197;28;20032;-67
2024/01/19 02:25:57;;;;;;;16.42;6.65;;;-4.30;99.90;;;;;;5061402;28;20052;-66
2024/01/19 02:28:23;;;;;;;15.80;6.03;;;-4.30;99.90;;;;;;5067731;28;20028;-67
2024/01/19 02:30:49;;;;;;;14.65;6.60;;;-4.30;99.90;;;;;;5066635;28;20048;-67
2024/01/19 02:33:15;;;;;;;12.93;6.32;;;-4.30;99.90;;;;;;5067278;28;20423;-66
2024/01/19 02:35:40;;;;;;;13.35;6.60;;;-4.30;99.90;;;;;;5067809;28;20043;-68
2024/01/19 02:38:09;;;;;;;17.73;6.85;;;-4.30;99.90;;;;;;5067044;28;20040;-66
2024/01/19 02:40:43;;;;;;;12.38;6.63;;;-4.30;99.90;;;;;;5066817;28;20052;-67
2024/01/19 02:43:21;;;;;;;10.82;5.95;;;-4.30;99.90;;;;;;5072582;28;20040;-66
2024/01/19 02:45:46;;;;;;;12.23;6.85;;;-4.30;99.90;;;;;;5066812;28;20117;-67
2024/01/19 02:48:12;;;;;;;11.85;7.13;;;-4.30;99.90;;;;;;5067883;28;20036;-65
2024/01/19 02:50:43;;;;;;;11.88;6.40;;;-4.30;99.90;;;;;;5066371;28;20511;-66
2024/01/19 02:53:11;;;;;;;14.55;7.05;;;-4.30;99.90;;;;;;5063086;28;20064;-64
2024/01/19 02:55:40;;;;;;;14.15;6.95;;;-4.30;99.90;;;;;;5065078;28;20046;-67
2024/01/19 02:58:12;;;;;;;15.68;7.40;;;-4.30;99.90;;;;;;5065810;28;20062;-66
2024/01/19 03:00:41;;;;;;;14.57;5.93;;;-4.30;99.90;;;;;;5057245;28;20037;-67
2024/01/19 03:03:07;;;;;;;11.27;6.45;;;-4.30;99.90;;;;;;5066378;28;20043;-67
2024/01/19 03:05:37;;;;;;;16.70;7.43;;;-4.30;99.90;;;;;;5066243;28;20052;-67
2024/01/19 03:08:06;;;;;;;14.02;6.82;;;-4.30;99.90;;;;;;5066452;28;20059;-67
2024/01/19 03:10:48;;;;;;;11.85;6.30;;;-4.30;99.90;;;;;;5065995;28;20583;-66
2024/01/19 03:13:13;;;;;;;15.25;6.75;;;-4.30;99.90;;;;;;5068122;28;20032;-66
2024/01/19 03:15:42;;;;;;;12.82;7.57;;;-4.30;99.90;;;;;;5066989;28;20041;-66
2024/01/19 03:18:11;;;;;;;13.93;6.38;;;-4.30;99.90;;;;;;5066515;28;20028;-66
2024/01/19 03:20:39;;;;;;;14.93;7.03;;;-4.40;99.90;;;;;;5066969;28;20036;-66
2024/01/19 03:23:09;;;;;;;16.35;7.10;;;-4.40;99.90;;;;;;5066315;28;20032;-68
2024/01/19 03:25:35;;;;;;;13.30;6.53;;;-4.40;99.90;;;;;;5068214;28;20040;-67
2024/01/19 03:28:03;;;;;;;12.77;6.28;;;-4.40;99.90;;;;;;5066398;28;20044;-68
2024/01/19 03:30:29;;;;;;;16.02;7.18;;;-4.40;99.90;;;;;;5064365;28;20051;-66
2024/01/19 03:32:54;;;;;;;18.70;6.78;;;-4.40;99.90;;;;;;5066584;28;20112;-66
2024/01/19 03:35:20;;;;;;;17.52;6.13;;;-4.40;99.90;;;;;;5066204;28;20114;-66
2024/01/19 03:37:46;;;;;;;12.25;5.47;;;-4.40;99.90;;;;;;5066055;28;20048;-66
2024/01/19 03:40:11;;;;;;;13.82;6.75;;;-4.30;99.90;;;;;;5066446;28;20032;-66
2024/01/19 03:42:37;;;;;;;19.02;6.80;;;-4.30;99.90;;;;;;5065867;28;20029;-65
2024/01/19 03:45:04;;;;;;;16.52;6.93;;;-4.40;99.90;;;;;;5065325;28;20048;-66
2024/01/19 03:47:29;;;;;;;14.60;6.00;;;-4.30;99.90;;;;;;5065562;28;20151;-66
2024/01/19 03:49:55;;;;;;;16.42;6.05;;;-4.30;99.90;;;;;;5065968;28;20041;-66
2024/01/19 03:52:20;;;;;;;11.88;5.45;;;-4.20;99.90;;;;;;5067305;28;20064;-66
2024/01/19 03:54:46;;;;;;;15.07;5.82;;;-4.20;99.90;;;;;;5068552;28;20052;-66
2024/01/19 03:57:11;;;;;;;18.02;7.25;;;-4.20;99.90;;;;;;5069615;28;20037;-65
2024/01/19 03:59:37;;;;;;;18.60;6.68;;;-4.20;99.90;;;;;;5066938;28;20028;-66
2024/01/19 04:02:05;;;;;;;17.90;6.35;;;-4.20;99.90;;;;;;5067974;28;20033;-67
2024/01/19 04:04:31;;;;;;;20.20;6.60;;;-4.20;99.90;;;;;;5076045;28;20048;-66
2024/01/19 04:06:56;;;;;;;18.80;7.25;;;-4.20;99.90;;;;;;5068780;28;20041;-69
2024/01/19 04:09:22;;;;;;;16.67;7.82;;;-4.30;99.90;;;;;;5069558;28;20385;-66
2024/01/19 04:11:48;;;;;;;16.90;7.72;;;-4.20;99.90;;;;;;5070007;28;20082;-67
2024/01/19 04:14:13;;;;;;;20.48;7.20;;;-4.20;99.90;;;;;;5069271;28;20120;-67
2024/01/19 04:16:39;;;;;;;14.65;6.80;;;-4.30;99.90;;;;;;5069436;28;20102;-67
2024/01/19 04:19:06;;;;;;;17.73;6.38;;;-4.30;99.90;;;;;;5070180;28;20047;-66
2024/01/19 04:21:32;;;;;;;18.05;7.38;;;-4.30;99.90;;;;;;5074272;28;20491;-65
2024/01/19 04:23:58;;;;;;;17.33;7.60;;;-4.30;99.90;;;;;;5069740;28;20075;-68
2024/01/19 04:26:24;;;;;;;20.20;7.57;;;-4.20;99.90;;;;;;5071517;28;20047;-66
2024/01/19 04:28:50;;;;;;;15.32;6.47;;;-4.20;99.90;;;;;;5069471;28;20032;-66
2024/01/19 04:31:15;;;;;;;13.95;6.32;;;-4.20;99.90;;;;;;5068739;28;20036;-66
2024/01/19 04:33:41;;;;;;;14.43;6.32;;;-4.20;99.90;;;;;;5069393;28;20540;-66
2024/01/19 04:36:07;;;;;;;17.90;6.68;;;-4.20;99.90;;;;;;5069814;28;20155;-66
2024/01/19 04:38:32;;;;;;;13.38;6.95;;;-4.10;99.90;;;;;;5071885;28;20044;-67
2024/01/19 04:40:58;;;;;;;14.15;6.18;;;-4.10;99.90;;;;;;5070412;28;20037;-66
2024/01/19 04:43:24;;;;;;;18.45;6.53;;;-4.00;99.90;;;;;;5069247;28;20631;-67
2024/01/19 04:45:49;;;;;;;18.27;6.97;;;-4.00;99.90;;;;;;5068707;28;20039;-66
2024/01/19 04:48:15;;;;;;;16.38;6.53;;;-3.90;99.90;;;;;;5068731;28;20032;-67
2024/01/19 04:50:40;;;;;;;14.65;6.20;;;-3.90;99.90;;;;;;5068105;28;20082;-66
2024/01/19 04:53:06;;;;;;;24.67;7.78;;;-3.90;99.90;;;;;;5069128;28;20033;-67
2024/01/19 04:55:31;;;;;;;18.50;8.15;;;-3.80;99.90;;;;;;5068899;28;20595;-67
2024/01/19 04:57:57;;;;;;;20.25;6.60;;;-3.70;99.90;;;;;;5068490;28;20040;-67
2024/01/19 05:00:23;;;;;;;20.95;7.47;;;-3.70;99.90;;;;;;5067111;28;20171;-67
2024/01/19 05:02:49;;;;;;;17.15;6.78;;;-3.70;99.90;;;;;;5068803;28;20484;-67
2024/01/19 05:05:15;;;;;;;17.02;7.05;;;-3.80;99.90;;;;;;5068234;28;20052;-66
2024/01/19 05:07:40;;;;;;;20.38;7.75;;;-3.70;99.90;;;;;;5070452;28;20093;-67
2024/01/19 05:10:07;;;;;;;17.92;7.43;;;-3.70;99.90;;;;;;5068603;28;20119;-67
2024/01/19 05:12:33;;;;;;;18.30;6.85;;;-3.60;99.90;;;;;;5067598;28;20044;-67
2024/01/19 05:14:58;;;;;;;18.63;7.40;;;-3.50;99.90;;;;;;5067830;28;20553;-67
2024/01/19 05:17:24;;;;;;;25.30;9.20;;;-3.50;99.90;;;;;;5071982;28;20051;-66
2024/01/19 05:19:49;;;;;;;21.70;8.23;;;-3.60;99.90;;;;;;5068298;28;20041;-66
2024/01/19 05:22:15;;;;;;;25.65;9.32;;;-3.50;99.90;;;;;;5067979;28;20048;-66
2024/01/19 05:24:41;;;;;;;23.42;9.07;;;-3.40;99.90;;;;;;5067177;28;20037;-67
2024/01/19 05:27:07;;;;;;;23.73;9.85;;;-3.40;99.90;;;;;;5067865;28;20163;-66
2024/01/19 05:29:34;;;;;;;30.25;9.80;;;-3.30;99.90;;;;;;5067567;28;20124;-67
2024/01/19 05:32:00;;;;;;;29.75;9.93;;;-3.20;99.90;;;;;;5067567;28;20034;-66
2024/01/19 05:34:26;;;;;;;35.10;10.80;;;-3.20;99.90;;;;;;5067696;28;20385;-66
2024/01/19 05:36:52;;;;;;;24.85;9.77;;;-3.10;99.90;;;;;;5066985;28;20036;-66
2024/01/19 05:39:17;;;;;;;30.38;11.05;;;-3.10;99.90;;;;;;5066282;28;20409;-66
2024/01/19 05:41:43;;;;;;;29.52;9.82;;;-3.00;99.90;;;;;;5066497;28;20036;-66
2024/01/19 05:44:08;;;;;;;31.63;11.88;;;-3.00;99.90;;;;;;5067694;28;20029;-66
2024/01/19 05:46:34;;;;;;;24.48;10.18;;;-2.90;99.90;;;;;;5066682;28;20041;-66
2024/01/19 05:48:59;;;;;;;30.58;11.48;;;-2.90;99.90;;;;;;5065746;28;20112;-64
2024/01/19 05:51:25;;;;;;;33.17;10.85;;;-2.90;99.90;;;;;;5066141;28;20044;-66
2024/01/19 05:53:50;;;;;;;26.98;10.18;;;-2.90;99.90;;;;;;5066500;28;20086;-67
2024/01/19 05:56:16;;;;;;;30.08;11.75;;;-2.80;99.90;;;;;;5067217;28;20036;-66
2024/01/19 05:58:41;;;;;;;24.65;11.60;;;-2.80;99.90;;;;;;5066907;28;20506;-67
2024/01/19 06:01:07;;;;;;;29.35;11.52;;;-2.80;99.90;;;;;;5065873;28;20500;-66
2024/01/19 06:03:35;;;;;;;29.00;10.90;;;-2.70;99.90;;;;;;5067000;28;20040;-67
2024/01/19 06:06:04;;;;;;;27.15;11.57;;;-2.70;99.90;;;;;;5067348;28;20040;-66
2024/01/19 06:08:31;;;;;;;27.50;10.80;;;-2.70;99.90;;;;;;5059516;28;20369;-66
2024/01/19 06:10:57;;;;;;;32.78;11.52;;;-2.60;99.90;;;;;;5066878;28;20024;-67
2024/01/19 06:13:23;;;;;;;34.03;11.55;;;-2.60;99.90;;;;;;5068522;28;20385;-67
2024/01/19 06:15:48;;;;;;;37.60;11.88;;;-2.60;99.90;;;;;;5066752;28;20044;-67
2024/01/19 06:18:14;;;;;;;32.88;11.93;;;-2.50;99.90;;;;;;5067971;28;20056;-66
2024/01/19 06:20:43;;;;;;;30.17;11.13;;;-2.50;99.90;;;;;;5067075;28;20048;-66
2024/01/19 06:23:09;;;;;;;29.10;11.40;;;-2.50;99.90;;;;;;5066989;28;20058;-66
2024/01/19 06:25:35;;;;;;;32.70;11.18;;;-2.50;99.90;;;;;;5066940;28;20048;-68
2024/01/19 06:28:04;;;;;;;33.75;11.80;;;-2.40;99.90;;;;;;5063048;28;20032;-66
2024/01/19 06:30:30;;;;;;;27.88;12.32;;;-2.40;99.90;;;;;;5066027;28;20047;-67
2024/01/19 06:32:56;;;;;;;29.83;11.43;;;-2.40;99.90;;;;;;5066931;28;20044;-67
2024/01/19 06:35:21;;;;;;;29.40;11.48;;;-2.40;99.90;;;;;;5067502;28;20044;-68
2024/01/19 06:37:47;;;;;;;25.10;11.15;;;-2.40;99.90;;;;;;5066736;28;20064;-68
2024/01/19 06:40:14;;;;;;;29.65;10.60;;;-2.30;99.90;;;;;;5071972;28;20575;-67
2024/01/19 06:42:44;;;;;;;31.02;10.98;;;-2.30;99.90;;;;;;5066879;28;20119;-67
2024/01/19 06:45:10;;;;;;;33.78;11.10;;;-2.30;99.90;;;;;;5070081;28;20112;-65
2024/01/19 06:47:35;;;;;;;38.15;12.98;;;-2.30;99.90;;;;;;5065332;28;20048;-67
2024/01/19 06:50:01;;;;;;;40.05;12.57;;;-2.30;99.90;;;;;;5066761;28;20063;-66
2024/01/19 06:52:27;;;;;;;23.48;10.48;;;-2.20;99.90;;;;;;5066765;28;20731;-70
2024/01/19 06:54:52;;;;;;;41.90;12.63;;;-2.20;99.90;;;;;;5045451;22;20037;-65
2024/01/19 06:57:18;;;;;;;30.65;11.50;;;-2.20;99.90;;;;;;5024086;28;20081;-66
2024/01/19 06:59:43;;;;;;;33.13;13.25;;;-2.20;99.90;;;;;;5018113;28;20041;-66
2024/01/19 07:02:09;;;;;;;29.17;10.43;;;-2.20;99.90;;;;;;5023139;28;20072;-65
2024/01/19 07:04:34;;;;;;;32.80;10.60;;;-2.20;99.90;;;;;;5028109;28;20052;-66
2024/01/19 07:07:00;;;;;;;24.92;10.77;;;-2.20;99.90;;;;;;5022252;28;20472;-65
2024/01/19 07:09:29;;;;;;;29.42;11.82;;;-2.20;99.90;;;;;;5025297;28;20053;-65
2024/01/19 07:11:54;;;;;;;25.42;10.32;;;-2.10;99.90;;;;;;5025614;28;20042;-67
2024/01/19 07:14:20;;;;;;;36.10;10.77;;;-2.10;99.90;;;;;;5025948;28;20030;-65
2024/01/19 07:16:45;;;;;;;26.67;9.63;;;-2.10;99.90;;;;;;5030617;28;20047;-66
2024/01/19 07:19:11;;;;;;;27.52;9.75;;;-2.10;99.90;;;;;;5021667;28;20030;-66
2024/01/19 07:21:40;;;;;;;25.90;9.80;;;-2.00;99.90;;;;;;5022375;28;20140;-66
2024/01/19 07:24:11;;;;;;;28.92;10.38;;;-2.00;99.90;;;;;;5020911;28;20065;-65
2024/01/19 07:26:38;;;;;;;28.55;9.55;;;-2.00;99.90;;;;;;5023485;28;20068;-66
2024/01/19 07:29:06;;;;;;;33.78;12.15;;;-2.00;99.90;;;;;;5019828;28;20052;-66
2024/01/19 07:31:33;;;;;;;32.13;10.93;;;-2.00;99.90;;;;;;5030720;28;20095;-64
2024/01/19 07:33:59;;;;;;;34.67;11.73;;;-1.90;99.90;;;;;;5017408;28;20033;-66
2024/01/19 07:36:25;;;;;;;33.92;12.30;;;-1.90;99.90;;;;;;5025143;28;20142;-64
2024/01/19 07:38:50;;;;;;;40.38;11.48;;;-1.90;99.90;;;;;;5024904;28;20134;-67
2024/01/19 07:41:16;;;;;;;31.77;12.30;;;-1.90;99.90;;;;;;5026081;28;20128;-67
2024/01/19 07:43:41;;;;;;;24.40;9.77;;;-1.80;99.90;;;;;;5029968;28;20045;-67
2024/01/19 07:46:07;;;;;;;23.23;9.93;;;-1.80;99.90;;;;;;5029992;28;20033;-67
2024/01/19 07:48:32;;;;;;;35.70;10.00;;;-1.70;99.90;;;;;;5023812;28;20053;-67
2024/01/19 07:50:58;;;;;;;25.55;10.23;;;-1.70;99.90;;;;;;5012313;28;20112;-67
2024/01/19 07:53:24;;;;;;;25.20;9.45;;;-1.70;99.90;;;;;;5024980;28;20091;-67
2024/01/19 07:55:49;;;;;;;26.98;9.75;;;-1.60;99.90;;;;;;5027916;28;20333;-68
2024/01/19 07:58:16;;;;;;;32.80;10.45;;;-1.60;99.90;;;;;;5029884;28;20068;-68
2024/01/19 08:00:41;;;;;;;22.30;9.88;;;-1.60;99.90;;;;;;5020464;28;20041;-68
2024/01/19 08:03:08;;;;;;;26.90;10.02;;;-1.50;99.90;;;;;;5030727;28;20033;-67
2024/01/19 08:05:33;;;;;;;29.40;10.15;;;-1.40;99.90;;;;;;5024425;28;20046;-67
2024/01/19 08:07:59;;;;;;;26.30;8.98;;;-1.30;99.90;;;;;;5023767;28;20048;-65
2024/01/19 08:10:25;;;;;;;23.95;9.43;;;-1.30;99.90;;;;;;5018320;28;20045;-65
2024/01/19 08:12:50;;;;;;;31.45;10.10;;;-1.30;99.90;;;;;;5018830;28;20038;-65
2024/01/19 08:15:16;;;;;;;25.08;9.88;;;-1.30;99.90;;;;;;5023181;28;20037;-65
2024/01/19 08:17:42;;;;;;;30.45;10.90;;;-1.30;99.90;;;;;;5028746;28;20099;-67
2024/01/19 08:20:10;;;;;;;25.20;9.70;;;-1.20;99.90;;;;;;5025113;28;20050;-65
2024/01/19 08:22:36;;;;;;;21.83;9.18;;;-1.20;99.90;;;;;;5026099;28;20048;-65
2024/01/19 08:25:02;;;;;;;23.90;8.15;;;-1.20;99.90;;;;;;5021858;28;20042;-65
2024/01/19 08:27:27;;;;;;;23.60;8.70;;;-1.10;99.90;;;;;;5022538;28;20052;-67
2024/01/19 08:29:53;;;;;;;21.33;8.45;;;-1.00;99.90;;;;;;5021754;28;20497;-66
2024/01/19 08:32:18;;;;;;;24.70;9.55;;;-1.00;99.90;;;;;;5026455;28;20041;-69
2024/01/19 08:34:44;;;;;;;18.35;8.07;;;-0.90;99.90;;;;;;5026027;28;20052;-67
2024/01/19 08:37:10;;;;;;;30.13;9.88;;;-1.00;99.90;;;;;;5024997;28;20052;-68
2024/01/19 08:39:37;;;;;;;21.65;9.15;;;-1.00;99.90;;;;;;5027383;28;20069;-68
2024/01/19 08:42:04;;;;;;;28.98;9.88;;;-1.00;99.90;;;;;;5017808;28;20041;-67
2024/01/19 08:44:30;;;;;;;24.08;8.68;;;-1.00;99.90;;;;;;5020232;28;20042;-67
2024/01/19 08:46:57;;;;;;;25.88;9.23;;;-1.10;99.90;;;;;;5027430;28;20808;-67
2024/01/19 08:49:24;;;;;;;29.15;10.27;;;-1.10;99.90;;;;;;5023530;28;20060;-66
2024/01/19 08:51:51;;;;;;;20.17;9.32;;;-1.10;99.90;;;;;;5022773;28;20045;-66
2024/01/19 08:54:20;;;;;;;25.05;8.93;;;-1.10;99.90;;;;;;5014779;28;20560;-68
2024/01/19 08:56:46;;;;;;;25.95;9.40;;;-1.10;99.90;;;;;;5022167;28;20049;-68
2024/01/19 08:59:17;;;;;;;23.55;9.65;;;-1.10;99.90;;;;;;5028532;28;20048;-68
2024/01/19 09:01:45;;;;;;;27.67;9.18;;;-1.20;99.90;;;;;;5025397;28;20084;-68
2024/01/19 09:04:13;;;;;;;25.55;8.80;;;-1.10;99.90;;;;;;5031826;28;20040;-68
2024/01/19 09:06:39;;;;;;;23.15;9.18;;;-1.10;99.90;;;;;;5022787;28;20351;-67
2024/01/19 09:09:04;;;;;;;25.15;9.57;;;-1.10;99.90;;;;;;5030757;28;20072;-67
2024/01/19 09:11:36;;;;;;;25.20;9.60;;;-1.00;99.90;;;;;;5017058;28;20050;-67
2024/01/19 09:14:02;;;;;;;22.42;8.45;;;-0.90;99.90;;;;;;5029979;28;20095;-68
2024/01/19 09:16:27;;;;;;;23.55;9.30;;;-0.80;99.90;;;;;;5028139;28;20571;-68
2024/01/19 09:18:53;;;;;;;21.00;8.25;;;-0.70;99.90;;;;;;5033578;28;20041;-68
2024/01/19 09:21:18;;;;;;;23.13;9.02;;;-0.60;99.90;;;;;;5022802;28;20036;-67
2024/01/19 09:23:44;;;;;;;26.88;9.82;;;-0.70;99.90;;;;;;5028303;28;20029;-68
2024/01/19 09:26:18;;;;;;;21.52;8.05;;;-0.50;99.90;;;;;;5027732;28;20091;-68
2024/01/19 09:28:44;;;;;;;19.45;7.97;;;-0.60;99.90;;;;;;5029991;28;20051;-68
2024/01/19 09:31:09;;;;;;;24.55;9.73;;;-0.60;99.90;;;;;;5024154;28;20120;-68
2024/01/19 09:33:35;;;;;;;20.88;9.13;;;-0.50;99.90;;;;;;5029840;28;20048;-68
2024/01/19 09:36:00;;;;;;;25.90;7.97;;;-0.40;99.90;;;;;;5018433;28;20049;-68
2024/01/19 09:38:26;;;;;;;20.05;8.15;;;-0.50;99.90;;;;;;5024812;28;20128;-68
2024/01/19 09:41:02;;;;;;;21.65;7.93;;;-0.40;99.90;;;;;;5028704;28;20627;-68
2024/01/19 09:43:32;;;;;;;25.98;9.32;;;-0.40;99.90;;;;;;5027558;28;20073;-68
2024/01/19 09:46:04;;;;;;;23.80;8.63;;;-0.40;99.90;;;;;;5028491;28;20084;-68
2024/01/19 09:48:38;;;;;;;21.27;8.63;;;-0.40;99.90;;;;;;5028119;28;20056;-68
2024/01/19 09:51:08;;;;;;;17.92;8.43;;;-0.50;99.90;;;;;;5018978;28;20572;-68
2024/01/19 09:53:44;;;;;;;20.30;8.43;;;-0.40;99.90;;;;;;5020273;28;20047;-67
2024/01/19 09:56:12;;;;;;;21.50;8.35;;;-0.40;99.90;;;;;;5028672;28;20064;-68
2024/01/19 09:58:37;;;;;;;20.20;7.93;;;-0.40;99.90;;;;;;5022830;28;20500;-68
2024/01/19 10:01:03;;;;;;;21.38;7.68;;;-0.30;99.90;;;;;;5028363;28;20041;-68
2024/01/19 10:03:29;;;;;;;15.07;7.68;;;-0.30;99.90;;;;;;5023915;28;20497;-68
2024/01/19 10:05:55;;;;;;;24.92;9.13;;;-0.30;99.90;;;;;;5022782;28;20069;-68
2024/01/19 10:08:21;;;;;;;17.60;8.02;;;-0.30;99.90;;;;;;5022244;28;20501;-68
2024/01/19 10:10:49;;;;;;;20.80;7.80;;;-0.10;99.90;;;;;;5021500;28;20041;-68
2024/01/19 10:13:15;;;;;;;19.08;7.65;;;-0.10;99.90;;;;;;5018110;28;20092;-68
2024/01/19 10:15:43;;;;;;;18.85;8.23;;;0.00;99.90;;;;;;5025622;28;20783;-68
2024/01/19 10:18:10;;;;;;;19.85;8.02;;;-0.10;99.90;;;;;;5028416;28;20049;-67
2024/01/19 10:20:38;;;;;;;19.55;6.95;;;-0.20;99.90;;;;;;5030654;28;20456;-68
2024/01/19 10:23:21;;;;;;;21.60;7.65;;;-0.20;99.90;;;;;;5025969;28;20045;-68
2024/01/19 10:25:47;;;;;;;20.25;7.03;;;0.00;99.90;;;;;;5025336;28;20037;-68
2024/01/19 10:28:34;;;;;;;16.55;7.00;;;0.10;99.90;;;;;;5022839;28;20057;-69
2024/01/19 10:31:21;;;;;;;22.38;7.63;;;0.30;99.90;;;;;;5021345;28;20037;-68
2024/01/19 10:33:58;;;;;;;26.35;8.30;;;0.30;99.90;;;;;;5028757;28;20037;-68
2024/01/19 10:36:25;;;;;;;19.15;7.40;;;0.30;99.90;;;;;;5029021;28;20049;-67
2024/01/19 10:38:51;;;;;;;20.95;7.30;;;0.40;99.90;;;;;;5017701;28;20124;-68
2024/01/19 10:41:22;;;;;;;16.13;7.15;;;0.50;99.90;;;;;;5024468;28;20120;-68
2024/01/19 10:43:47;;;;;;;17.35;6.40;;;0.50;99.90;;;;;;5021172;28;20049;-68
2024/01/19 10:46:26;;;;;;;18.95;7.15;;;0.20;99.90;;;;;;5020365;28;20041;-67
2024/01/19 10:48:52;;;;;;;17.40;6.75;;;0.40;99.90;;;;;;5027722;28;20053;-68
2024/01/19 10:51:21;;;;;;;15.43;6.72;;;0.50;99.90;;;;;;5022016;28;20842;-68
2024/01/19 10:53:51;;;;;;;16.33;6.38;;;0.50;99.90;;;;;;5020875;28;20038;-67
2024/01/19 10:56:21;;;;;;;19.92;6.20;;;0.70;99.90;;;;;;5025382;28;20580;-68
2024/01/19 10:58:46;;;;;;;18.00;6.68;;;0.80;99.90;;;;;;5025691;28;20034;-68
2024/01/19 11:01:17;;;;;;;16.15;6.38;;;1.00;99.90;;;;;;5027203;28;20483;-68
2024/01/19 11:03:43;;;;;;;21.75;7.38;;;1.10;99.90;;;;;;5026442;28;20041;-67
2024/01/19 11:06:09;;;;;;;17.88;6.05;;;1.00;99.90;;;;;;5022600;28;20068;-68
2024/01/19 11:08:36;;;;;;;16.25;6.53;;;1.00;99.90;;;;;;5018974;28;20050;-68
2024/01/19 11:11:05;;;;;;;21.08;7.03;;;0.70;99.90;;;;;;5026268;28;20042;-68
2024/01/19 11:13:36;;;;;;;21.17;7.72;;;0.40;99.90;;;;;;5025491;28;20045;-68
2024/01/19 11:16:12;;;;;;;25.13;7.47;;;0.40;99.90;;;;;;5026597;28;20041;-68
2024/01/19 11:18:38;;;;;;;19.13;7.20;;;0.40;99.90;;;;;;5022904;28;20119;-68
2024/01/19 11:21:04;;;;;;;18.52;6.43;;;0.30;99.90;;;;;;5025605;28;20045;-67
2024/01/19 11:23:31;;;;;;;16.33;6.25;;;0.20;99.90;;;;;;5019016;28;20043;-67
2024/01/19 11:26:19;;;;;;;20.40;6.65;;;0.20;99.90;;;;;;5015583;28;20061;-66
2024/01/19 11:29:03;;;;;;;17.33;6.90;;;0.20;99.90;;;;;;5014422;28;20537;-70
2024/01/19 11:31:33;;;;;;;21.27;6.47;;;0.20;99.90;;;;;;5019460;28;20044;-68
2024/01/19 11:33:59;;;;;;;17.30;6.30;;;0.50;99.90;;;;;;5023926;28;20160;-69
2024/01/19 11:36:39;;;;;;;12.35;5.20;;;0.90;99.90;;;;;;5026052;28;20124;-71
2024/01/19 11:39:05;;;;;;;15.18;5.93;;;1.20;99.90;;;;;;5022513;28;20542;-70
2024/01/19 11:41:34;;;;;;;13.60;5.28;;;1.30;99.90;;;;;;5028538;28;20095;-72
2024/01/19 11:44:00;;;;;;;16.85;6.57;;;1.20;99.90;;;;;;5024969;28;20065;-67
2024/01/19 11:46:42;;;;;;;17.48;6.35;;;1.00;99.90;;;;;;5024740;28;20133;-72
2024/01/19 11:49:09;;;;;;;15.93;5.88;;;0.80;99.90;;;;;;5017946;28;20099;-70
2024/01/19 11:51:35;;;;;;;14.65;5.97;;;0.80;99.90;;;;;;5020643;28;20044;-66
2024/01/19 11:54:03;;;;;;;14.07;6.20;;;0.40;99.90;;;;;;5023742;28;20501;-66
2024/01/19 11:56:30;;;;;;;15.30;5.63;;;0.20;99.90;;;;;;5025408;28;20455;-67
2024/01/19 11:58:55;;;;;;;18.88;5.90;;;0.20;99.90;;;;;;5017010;28;20125;-66
2024/01/19 12:01:22;;;;;;;24.02;6.15;;;0.40;99.90;;;;;;5023125;28;20125;-67
2024/01/19 12:03:52;;;;;;;20.50;6.28;;;0.40;99.90;;;;;;5017538;28;20043;-67
2024/01/19 12:06:18;;;;;;;19.95;6.32;;;0.40;99.90;;;;;;5020543;28;20067;-68
2024/01/19 12:08:43;;;;;;;14.43;6.22;;;0.20;99.90;;;;;;5017063;28;20045;-66
2024/01/19 12:11:14;;;;;;;14.52;5.55;;;0.20;99.90;;;;;;5016618;28;20037;-69
2024/01/19 12:13:41;;;;;;;18.65;6.47;;;0.30;99.90;;;;;;5019110;28;20088;-66
2024/01/19 12:16:07;;;;;;;14.68;5.55;;;0.20;99.90;;;;;;5025532;28;20522;-66
2024/01/19 12:18:35;;;;;;;13.73;5.57;;;0.30;99.90;;;;;;5024435;28;20055;-67
2024/01/19 12:21:01;;;;;;;20.25;6.15;;;0.40;99.90;;;;;;5021006;28;20055;-67
2024/01/19 12:23:32;;;;;;;22.42;5.93;;;0.50;99.90;;;;;;5021989;28;20038;-67
2024/01/19 12:26:00;;;;;;;13.00;4.95;;;0.60;99.90;;;;;;5022853;28;20107;-67
2024/01/19 12:28:26;;;;;;;18.10;6.00;;;0.70;99.90;;;;;;5025229;28;20037;-67
2024/01/19 12:30:52;;;;;;;17.73;5.93;;;0.70;99.90;;;;;;5021949;28;20037;-66
2024/01/19 12:33:25;;;;;;;15.60;5.90;;;0.50;99.90;;;;;;5019022;28;20037;-67
2024/01/19 12:36:02;;;;;;;21.42;6.13;;;0.40;99.90;;;;;;5027857;28;20650;-67
2024/01/19 12:38:27;;;;;;;18.27;6.20;;;0.40;99.90;;;;;;5025148;28;20034;-67
2024/01/19 12:40:53;;;;;;;16.95;5.65;;;0.60;99.90;;;;;;5028104;28;20453;-67
2024/01/19 12:43:18;;;;;;;28.20;6.45;;;0.70;99.90;;;;;;5027426;28;20053;-66